Time;durP1;ratioP1;P1;durP2;ratioP2;P2;SDS_P1;SDS_P2;PMS_P1;PMS_P2;Temp;Humidity;BMP_temperature;BMP_pressure;BME280_temperature;BME280_humidity;BME280_pressure;Samples;Min_cycle;Max_cycle;Signal;HPM_P1;HPM_P2
2023/06/21 00:00:38;;;;;;;9.82;8.82;;;;;;;18.84;55.07;94116.47;4986447;28;20034;-74
2023/06/21 00:03:04;;;;;;;9.15;7.97;;;;;;;18.85;55.29;94124.22;4989901;28;20464;-74
2023/06/21 00:05:30;;;;;;;15.20;9.48;;;;;;;18.81;55.51;94128.78;4990165;28;20034;-74
2023/06/21 00:07:56;;;;;;;12.07;8.57;;;;;;;18.88;55.34;94134.28;4984517;28;20038;-74
2023/06/21 00:10:23;;;;;;;9.38;8.35;;;;;;;18.76;55.57;94115.59;4981948;28;20961;-74
2023/06/21 00:12:53;;;;;;;16.70;9.27;;;;;;;18.72;55.56;94119.34;4989417;28;20034;-74
2023/06/21 00:15:20;;;;;;;13.80;9.35;;;;;;;18.67;55.64;94116.91;4983307;28;20039;-74
2023/06/21 00:17:45;;;;;;;10.38;8.95;;;;;;;18.75;55.48;94135.56;4979487;28;20045;-74
2023/06/21 00:20:11;;;;;;;11.07;9.98;;;;;;;18.73;55.75;94137.84;4987740;28;20039;-74
2023/06/21 00:22:37;;;;;;;10.32;9.18;;;;;;;18.67;55.95;94133.88;4989468;28;20113;-74
2023/06/21 00:25:03;;;;;;;12.55;10.05;;;;;;;18.70;55.93;94135.88;4987548;28;20129;-73
2023/06/21 00:27:29;;;;;;;13.13;9.20;;;;;;;18.63;56.18;94121.44;4993278;28;20535;-73
2023/06/21 00:29:54;;;;;;;10.20;8.93;;;;;;;18.65;56.27;94130.75;4986258;28;20325;-74
2023/06/21 00:32:19;;;;;;;12.40;9.60;;;;;;;18.70;55.96;94129.66;4985181;28;20472;-73
2023/06/21 00:34:47;;;;;;;11.20;10.00;;;;;;;18.70;56.12;94121.59;4983492;28;20046;-74
2023/06/21 00:37:15;;;;;;;13.00;9.57;;;;;;;18.56;55.90;94099.78;4985396;28;20037;-74
2023/06/21 00:39:41;;;;;;;13.10;10.15;;;;;;;18.65;56.15;94124.56;4984620;28;20045;-74
2023/06/21 00:42:07;;;;;;;11.15;8.95;;;;;;;18.52;56.72;94109.69;4980317;28;20038;-74
2023/06/21 00:44:33;;;;;;;9.85;8.85;;;;;;;18.54;56.80;94126.28;4987401;28;20385;-74
2023/06/21 00:46:58;;;;;;;11.43;9.27;;;;;;;18.48;56.83;94123.06;4984299;28;20026;-73
2023/06/21 00:49:25;;;;;;;10.55;8.60;;;;;;;18.55;56.83;94127.84;4990932;28;20092;-75
2023/06/21 00:52:00;;;;;;;10.13;9.00;;;;;;;18.52;56.63;94137.41;4986673;28;20070;-74
2023/06/21 00:54:32;;;;;;;11.23;9.35;;;;;;;18.38;56.79;94115.59;4986499;28;20124;-74
2023/06/21 00:56:58;;;;;;;10.18;9.13;;;;;;;18.45;56.50;94116.50;4987525;28;20539;-74
2023/06/21 00:59:27;;;;;;;10.85;8.80;;;;;;;18.45;56.54;94135.34;4987584;28;20034;-74
2023/06/21 01:01:56;;;;;;;11.90;9.30;;;;;;;18.45;56.64;94126.50;4987741;28;20026;-74
2023/06/21 01:04:28;;;;;;;12.48;9.98;;;;;;;18.45;56.78;94132.66;4984672;28;20522;-74
2023/06/21 01:07:05;;;;;;;11.18;9.38;;;;;;;18.41;57.22;94133.72;4987133;28;20103;-74
2023/06/21 01:09:50;;;;;;;10.93;8.90;;;;;;;18.35;57.50;94124.38;4982764;28;20050;-74
2023/06/21 01:12:37;;;;;;;12.27;10.23;;;;;;;18.36;57.44;94125.94;4986021;28;20049;-74
2023/06/21 01:15:08;;;;;;;13.18;10.18;;;;;;;18.42;57.04;94129.91;4986153;28;20041;-73
2023/06/21 01:17:35;;;;;;;11.68;9.27;;;;;;;18.24;56.77;94089.16;4985473;28;20048;-74
2023/06/21 01:20:13;;;;;;;10.80;9.73;;;;;;;18.48;56.66;94126.56;4992718;28;20536;-74
2023/06/21 01:23:00;;;;;;;11.40;9.35;;;;;;;18.38;56.73;94110.22;4987831;28;20501;-74
2023/06/21 01:25:50;;;;;;;10.05;9.05;;;;;;;18.43;56.95;94120.69;4986949;28;20409;-74
2023/06/21 01:28:53;;;;;;;10.48;9.48;;;;;;;18.41;57.04;94120.25;4985481;28;20133;-73
2023/06/21 01:31:20;;;;;;;12.05;10.02;;;;;;;18.37;56.75;94119.41;4991084;28;20050;-75
2023/06/21 01:33:46;;;;;;;11.93;9.80;;;;;;;18.28;57.14;94110.78;4985274;28;20405;-73
2023/06/21 01:36:12;;;;;;;10.57;9.48;;;;;;;18.21;57.31;94127.56;4988959;28;20233;-74
2023/06/21 01:38:37;;;;;;;10.00;9.00;;;;;;;18.06;57.53;94106.06;4985658;28;20033;-74
2023/06/21 01:41:03;;;;;;;11.68;9.52;;;;;;;18.09;57.54;94121.53;4987631;28;20026;-74
2023/06/21 01:43:30;;;;;;;11.32;9.75;;;;;;;18.15;57.67;94131.66;4988809;28;20046;-74
2023/06/21 01:45:58;;;;;;;10.43;9.38;;;;;;;18.18;57.43;94132.88;4990245;28;20193;-74
2023/06/21 01:48:24;;;;;;;11.35;9.38;;;;;;;18.13;57.50;94125.84;4991317;28;20096;-74
2023/06/21 01:50:51;;;;;;;11.82;10.38;;;;;;;17.98;57.87;94116.69;4990876;28;20041;-74
2023/06/21 01:53:19;;;;;;;10.77;9.70;;;;;;;18.06;57.99;94124.91;4987628;28;20436;-74
2023/06/21 01:55:48;;;;;;;11.25;10.05;;;;;;;18.15;57.96;94138.94;4986958;28;20041;-74
2023/06/21 01:58:15;;;;;;;11.27;10.10;;;;;;;18.12;58.02;94147.72;4993351;28;20034;-73
2023/06/21 02:00:41;;;;;;;11.68;9.43;;;;;;;18.07;58.01;94143.41;4988488;28;20318;-73
2023/06/21 02:03:09;;;;;;;11.82;9.30;;;;;;;17.98;58.40;94129.38;4990969;28;20113;-74
2023/06/21 02:05:35;;;;;;;11.73;9.55;;;;;;;18.02;58.40;94132.91;4989570;28;20036;-74
2023/06/21 02:08:04;;;;;;;12.95;9.70;;;;;;;17.99;58.52;94130.94;4990456;28;20061;-73
2023/06/21 02:10:30;;;;;;;10.90;9.52;;;;;;;17.83;58.45;94104.03;4991558;28;20458;-74
2023/06/21 02:12:56;;;;;;;12.68;9.98;;;;;;;18.05;58.35;94129.50;4990971;28;20108;-75
2023/06/21 02:15:22;;;;;;;13.80;11.00;;;;;;;18.08;58.01;94122.66;4997127;28;20034;-74
2023/06/21 02:17:49;;;;;;;10.88;9.60;;;;;;;18.03;58.18;94137.94;4992014;28;20043;-74
2023/06/21 02:20:16;;;;;;;12.40;10.48;;;;;;;18.01;58.19;94126.75;4992929;28;20321;-74
2023/06/21 02:22:42;;;;;;;12.55;8.95;;;;;;;18.01;58.23;94144.81;4990161;28;20696;-73
2023/06/21 02:25:12;;;;;;;11.35;10.23;;;;;;;18.01;58.31;94139.41;4990525;28;20451;-73
2023/06/21 02:27:37;;;;;;;10.32;9.32;;;;;;;17.93;58.15;94130.44;4992279;28;20595;-74
2023/06/21 02:30:04;;;;;;;14.82;10.40;;;;;;;17.95;58.06;94136.22;4991652;28;20349;-73
2023/06/21 02:32:30;;;;;;;10.10;8.35;;;;;;;17.84;58.60;94139.78;4991943;28;20030;-74
2023/06/21 02:34:55;;;;;;;11.43;10.30;;;;;;;17.83;58.68;94139.00;4991038;28;20030;-74
2023/06/21 02:37:21;;;;;;;10.88;9.70;;;;;;;17.88;58.98;94151.41;4990549;28;20033;-74
2023/06/21 02:39:46;;;;;;;13.57;10.10;;;;;;;17.74;58.90;94138.44;4996460;28;20034;-73
2023/06/21 02:42:12;;;;;;;11.27;10.18;;;;;;;17.76;59.25;94151.50;4989688;28;20036;-73
2023/06/21 02:44:37;;;;;;;12.48;10.15;;;;;;;17.70;59.60;94156.38;4989134;28;20575;-74
2023/06/21 02:47:03;;;;;;;11.15;9.77;;;;;;;17.71;59.47;94157.94;4989907;28;20018;-74
2023/06/21 02:49:29;;;;;;;10.68;9.45;;;;;;;17.65;59.40;94148.56;4990567;28;20045;-74
2023/06/21 02:51:54;;;;;;;11.18;10.07;;;;;;;17.66;59.59;94155.50;4991083;28;20035;-75
2023/06/21 02:54:19;;;;;;;15.02;11.15;;;;;;;17.74;59.48;94168.03;4990439;28;20042;-73
2023/06/21 02:56:45;;;;;;;12.65;10.65;;;;;;;17.77;59.41;94171.91;4989766;28;20530;-74
2023/06/21 02:59:12;;;;;;;11.65;10.45;;;;;;;17.74;59.31;94161.84;4991884;28;20038;-74
2023/06/21 03:01:37;;;;;;;12.10;10.48;;;;;;;17.77;59.37;94171.91;4989349;28;20037;-74
2023/06/21 03:04:03;;;;;;;13.32;11.35;;;;;;;17.68;59.88;94168.63;4990718;28;20660;-73
2023/06/21 03:06:33;;;;;;;11.32;10.10;;;;;;;17.63;59.55;94158.91;4991718;28;20081;-74
2023/06/21 03:08:59;;;;;;;11.52;10.32;;;;;;;17.76;59.69;94179.19;4989128;28;20630;-73
2023/06/21 03:11:24;;;;;;;16.95;10.23;;;;;;;17.68;59.80;94169.41;4988689;28;20053;-73
2023/06/21 03:13:50;;;;;;;10.93;9.82;;;;;;;17.80;59.63;94182.75;4987149;28;20046;-74
2023/06/21 03:16:15;;;;;;;11.13;9.30;;;;;;;17.75;59.54;94172.25;4991826;28;20054;-74
2023/06/21 03:18:41;;;;;;;11.32;10.23;;;;;;;17.82;59.83;94185.88;4989200;28;20038;-74
2023/06/21 03:21:06;;;;;;;11.38;10.27;;;;;;;17.80;60.13;94176.56;4990168;28;20580;-74
2023/06/21 03:23:32;;;;;;;12.55;11.10;;;;;;;17.82;60.14;94183.19;4989387;28;20508;-75
2023/06/21 03:25:57;;;;;;;10.68;9.57;;;;;;;17.71;60.39;94174.06;4991165;28;20576;-74
2023/06/21 03:28:23;;;;;;;11.75;10.50;;;;;;;17.85;60.32;94189.75;4990469;28;20037;-74
2023/06/21 03:30:48;;;;;;;11.77;10.68;;;;;;;17.87;60.68;94190.19;4989674;28;20095;-73
2023/06/21 03:33:14;;;;;;;10.65;9.65;;;;;;;17.89;60.64;94186.03;4990908;28;20584;-74
2023/06/21 03:35:39;;;;;;;12.00;10.77;;;;;;;17.86;61.00;94178.66;4988487;28;20030;-74
2023/06/21 03:38:07;;;;;;;13.35;9.85;;;;;;;17.89;61.10;94179.88;4991888;28;21069;-74
2023/06/21 03:40:32;;;;;;;11.23;9.75;;;;;;;17.87;61.33;94182.91;4988923;28;20509;-74
2023/06/21 03:42:58;;;;;;;12.10;10.90;;;;;;;17.94;61.27;94188.47;4988417;28;20048;-74
2023/06/21 03:45:23;;;;;;;11.68;10.48;;;;;;;17.97;61.40;94187.78;4996763;28;20112;-73
2023/06/21 03:47:48;;;;;;;11.80;10.05;;;;;;;17.97;61.69;94187.00;4990020;28;20077;-74
2023/06/21 03:50:14;;;;;;;12.50;10.52;;;;;;;18.02;61.78;94182.13;4988488;28;20489;-74
2023/06/21 03:52:39;;;;;;;11.77;10.52;;;;;;;18.11;61.65;94194.63;4989473;28;20109;-73
2023/06/21 03:55:06;;;;;;;11.65;10.45;;;;;;;18.18;61.46;94184.00;4988157;28;20327;-74
2023/06/21 03:57:32;;;;;;;14.45;12.43;;;;;;;18.24;60.94;94182.59;4990013;28;20033;-74
2023/06/21 03:59:57;;;;;;;13.52;11.73;;;;;;;18.20;60.71;94184.44;4986371;28;20367;-74
2023/06/21 04:02:24;;;;;;;17.02;13.52;;;;;;;18.43;59.12;94190.72;4995809;28;20477;-72
2023/06/21 04:04:49;;;;;;;14.75;12.05;;;;;;;18.32;58.80;94182.41;4989526;28;20591;-74
2023/06/21 04:07:18;;;;;;;17.40;14.02;;;;;;;18.39;59.25;94192.53;4986066;28;20042;-74
2023/06/21 04:09:44;;;;;;;16.05;12.85;;;;;;;18.40;59.52;94204.88;4991045;28;20081;-74
2023/06/21 04:12:09;;;;;;;21.00;14.10;;;;;;;18.42;59.67;94197.22;4991656;28;20172;-74
2023/06/21 04:14:34;;;;;;;21.55;13.60;;;;;;;18.41;59.64;94184.88;4988146;28;20133;-74
2023/06/21 04:17:00;;;;;;;19.42;13.43;;;;;;;18.48;59.70;94207.34;4992139;28;20539;-74
2023/06/21 04:19:25;;;;;;;18.80;14.00;;;;;;;18.51;60.19;94207.78;4990629;28;20407;-72
2023/06/21 04:21:51;;;;;;;18.50;12.77;;;;;;;18.54;59.46;94194.38;4992749;28;21080;-73
2023/06/21 04:24:16;;;;;;;20.35;14.02;;;;;;;18.55;59.12;94195.94;4988046;28;20076;-74
2023/06/21 04:26:42;;;;;;;17.75;13.73;;;;;;;18.71;59.94;94207.47;4987771;28;20126;-74
2023/06/21 04:29:07;;;;;;;16.65;12.93;;;;;;;18.90;59.85;94217.47;4986983;28;20034;-74
2023/06/21 04:31:37;;;;;;;21.95;13.52;;;;;;;18.89;59.38;94210.50;4992097;28;20614;-74
2023/06/21 04:34:03;;;;;;;16.50;12.50;;;;;;;19.00;58.22;94216.91;4993413;28;20424;-74
2023/06/21 04:36:29;;;;;;;18.45;12.73;;;;;;;19.00;58.63;94208.81;4990405;28;20043;-74
2023/06/21 04:38:55;;;;;;;18.70;14.63;;;;;;;19.00;59.60;94218.81;4985536;28;20041;-74
2023/06/21 04:41:21;;;;;;;20.08;13.98;;;;;;;19.04;59.10;94201.56;4988898;28;20396;-74
2023/06/21 04:43:47;;;;;;;19.90;14.35;;;;;;;19.17;59.28;94215.66;4989246;28;20625;-75
2023/06/21 04:46:12;;;;;;;16.65;14.30;;;;;;;19.03;59.42;94207.31;4989875;28;20045;-73
2023/06/21 04:48:38;;;;;;;21.98;14.50;;;;;;;19.18;59.07;94212.63;4988882;28;20030;-74
2023/06/21 04:51:04;;;;;;;20.23;14.52;;;;;;;19.32;58.07;94212.09;4988877;28;20457;-73
2023/06/21 04:53:29;;;;;;;19.48;15.05;;;;;;;18.87;58.58;94202.78;4987148;28;20026;-74
2023/06/21 04:55:58;;;;;;;21.77;15.35;;;;;;;19.03;58.75;94210.00;4988344;28;20046;-74
2023/06/21 04:58:27;;;;;;;17.70;14.95;;;;;;;19.31;58.81;94221.34;4989403;28;20432;-74
2023/06/21 05:00:52;;;;;;;18.92;15.32;;;;;;;19.31;58.18;94188.97;4987920;28;20038;-73
2023/06/21 05:03:18;;;;;;;17.95;15.07;;;;;;;19.52;58.28;94216.31;4984046;28;20536;-73
2023/06/21 05:05:43;;;;;;;18.50;15.68;;;;;;;19.62;57.23;94221.13;4982822;28;20038;-74
2023/06/21 05:08:09;;;;;;;20.73;15.90;;;;;;;19.74;56.89;94206.69;4989598;28;20037;-73
2023/06/21 05:10:34;;;;;;;19.60;14.93;;;;;;;19.68;57.20;94200.81;4989321;28;20404;-73
2023/06/21 05:12:59;;;;;;;18.67;14.18;;;;;;;19.47;57.21;94219.31;4987418;28;20365;-75
2023/06/21 05:15:26;;;;;;;20.92;14.38;;;;;;;19.38;58.28;94213.34;4987808;28;20127;-76
2023/06/21 05:17:51;;;;;;;21.40;15.40;;;;;;;19.22;57.96;94199.19;4987954;28;20061;-75
2023/06/21 05:20:19;;;;;;;19.75;15.45;;;;;;;19.57;57.29;94213.31;4989722;28;20493;-75
2023/06/21 05:22:45;;;;;;;21.67;15.98;;;;;;;19.10;56.90;94094.22;4988541;28;20572;-75
2023/06/21 05:25:10;;;;;;;22.80;15.05;;;;;;;19.79;57.46;94192.09;4987405;28;20046;-75
2023/06/21 05:27:36;;;;;;;19.63;15.10;;;;;;;19.77;57.98;94202.47;4985527;28;21618;-76
2023/06/21 05:30:02;;;;;;;21.85;15.68;;;;;;;19.85;56.59;94223.03;4985310;28;20140;-74
2023/06/21 05:32:28;;;;;;;21.38;15.63;;;;;;;20.03;56.02;94207.91;4989722;28;20703;-75
2023/06/21 05:34:54;;;;;;;19.77;15.30;;;;;;;20.19;56.46;94205.06;4988874;28;20060;-75
2023/06/21 05:37:20;;;;;;;17.48;14.68;;;;;;;20.21;56.02;94186.56;4989774;28;20496;-75
2023/06/21 05:39:45;;;;;;;20.65;15.60;;;;;;;20.30;55.44;94211.38;4985498;28;20424;-75
2023/06/21 05:42:11;;;;;;;22.23;16.92;;;;;;;20.03;56.03;94200.56;4986663;28;20418;-75
2023/06/21 05:44:37;;;;;;;18.90;14.43;;;;;;;20.42;56.43;94208.47;4985733;28;20033;-76
2023/06/21 05:47:02;;;;;;;23.05;14.73;;;;;;;20.48;56.05;94196.97;4989684;28;20018;-75
2023/06/21 05:49:28;;;;;;;23.65;16.10;;;;;;;20.58;55.27;94207.13;4989601;28;20060;-76
2023/06/21 05:51:53;;;;;;;20.90;16.60;;;;;;;20.70;55.09;94205.34;4992312;28;20034;-75
2023/06/21 05:54:18;;;;;;;19.63;15.52;;;;;;;20.78;54.44;94199.66;4986558;28;20110;-75
2023/06/21 05:56:44;;;;;;;18.98;16.08;;;;;;;20.23;55.43;94173.50;4988112;28;20038;-74
2023/06/21 05:59:10;;;;;;;20.77;16.17;;;;;;;20.60;55.20;94199.47;4987773;28;20454;-75
2023/06/21 06:01:36;;;;;;;19.00;14.80;;;;;;;20.70;55.10;94189.16;4988366;28;20050;-75
2023/06/21 06:04:01;;;;;;;18.48;15.27;;;;;;;20.66;53.99;94196.44;4989885;28;20616;-75
2023/06/21 06:06:41;;;;;;;22.67;16.50;;;;;;;20.63;54.03;94199.88;4986331;28;20037;-75
2023/06/21 06:09:10;;;;;;;20.27;16.23;;;;;;;20.32;55.41;94193.69;4989328;28;20587;-75
2023/06/21 06:11:35;;;;;;;20.15;15.52;;;;;;;20.70;54.48;94191.84;4986524;28;20630;-76
2023/06/21 06:14:02;;;;;;;21.83;16.60;;;;;;;20.70;54.69;94176.41;4992391;28;20069;-74
2023/06/21 06:16:27;;;;;;;22.33;16.75;;;;;;;21.03;53.83;94189.16;5001920;28;20069;-74
2023/06/21 06:18:53;;;;;;;20.85;15.93;;;;;;;21.01;52.68;94186.06;4989476;28;20052;-75
2023/06/21 06:21:21;;;;;;;26.40;17.05;;;;;;;21.06;53.03;94172.22;4987122;28;20046;-74
2023/06/21 06:23:50;;;;;;;20.88;17.48;;;;;;;21.12;52.59;94175.38;4987221;28;20037;-75
2023/06/21 06:26:17;;;;;;;20.40;16.25;;;;;;;21.42;52.29;94190.34;4989807;28;20057;-75
2023/06/21 06:28:43;;;;;;;20.48;16.58;;;;;;;21.44;53.23;94193.47;4986541;28;20040;-75
2023/06/21 06:31:08;;;;;;;19.17;15.65;;;;;;;21.60;52.32;94195.19;4991180;28;20042;-74
2023/06/21 06:33:33;;;;;;;17.85;15.90;;;;;;;21.58;52.04;94181.22;4991313;28;20129;-74
2023/06/21 06:35:59;;;;;;;22.38;16.00;;;;;;;21.78;51.24;94185.28;4996585;28;20034;-75
2023/06/21 06:38:25;;;;;;;20.58;15.95;;;;;;;21.67;51.99;94189.81;4985868;28;20026;-75
2023/06/21 06:40:51;;;;;;;22.52;15.68;;;;;;;21.72;52.58;94186.75;4992107;28;20026;-75
2023/06/21 06:43:16;;;;;;;20.83;15.52;;;;;;;21.67;52.14;94189.81;4988230;28;20095;-75
2023/06/21 06:45:41;;;;;;;24.33;16.30;;;;;;;21.93;51.51;94197.00;4992227;28;20484;-75
2023/06/21 06:48:07;;;;;;;20.33;15.93;;;;;;;21.92;51.29;94179.97;4991140;28;20038;-75
2023/06/21 06:50:32;;;;;;;29.33;15.98;;;;;;;21.90;51.26;94195.03;4992194;28;20022;-75
2023/06/21 06:52:58;;;;;;;19.30;15.27;;;;;;;21.94;51.59;94174.97;4993407;28;20477;-75
2023/06/21 06:55:23;;;;;;;22.77;16.08;;;;;;;21.84;51.76;94178.38;4989587;28;20056;-75
2023/06/21 06:57:49;;;;;;;24.17;15.23;;;;;;;21.78;52.15;94180.63;4988038;28;20129;-75
2023/06/21 07:00:15;;;;;;;16.73;13.77;;;;;;;21.89;52.56;94167.19;4991043;28;20133;-75
2023/06/21 07:02:40;;;;;;;18.98;14.93;;;;;;;22.17;51.76;94178.22;4990522;28;20606;-75
2023/06/21 07:05:06;;;;;;;22.17;15.45;;;;;;;22.23;52.27;94198.41;4990175;28;20053;-76
2023/06/21 07:07:31;;;;;;;16.13;14.18;;;;;;;22.46;52.17;94186.53;4987958;28;20497;-75
2023/06/21 07:09:57;;;;;;;21.52;15.63;;;;;;;22.66;50.72;94190.50;4990314;28;20515;-75
2023/06/21 07:12:22;;;;;;;21.33;14.25;;;;;;;22.62;50.05;94189.72;4988568;28;20061;-76
2023/06/21 07:14:48;;;;;;;16.88;13.80;;;;;;;22.35;50.71;94174.84;4987988;28;20137;-75
2023/06/21 07:17:14;;;;;;;17.90;15.15;;;;;;;22.52;50.29;94174.16;4991783;28;20481;-75
2023/06/21 07:19:41;;;;;;;21.73;14.23;;;;;;;22.75;50.45;94182.78;4991048;28;20038;-75
2023/06/21 07:22:06;;;;;;;19.20;14.55;;;;;;;22.63;50.99;94166.88;4988978;28;20068;-75
2023/06/21 07:24:31;;;;;;;16.35;14.38;;;;;;;22.77;50.04;94175.06;4989043;28;20034;-75
2023/06/21 07:26:57;;;;;;;20.90;14.50;;;;;;;22.76;50.81;94170.78;4988578;28;20078;-75
2023/06/21 07:29:22;;;;;;;18.88;13.77;;;;;;;22.86;50.65;94156.53;4995469;28;20026;-74
2023/06/21 07:31:48;;;;;;;26.23;15.15;;;;;;;23.05;50.13;94172.47;4989016;28;20021;-76
2023/06/21 07:34:13;;;;;;;18.38;14.50;;;;;;;23.25;50.46;94169.41;4989203;28;20030;-74
2023/06/21 07:36:40;;;;;;;21.20;14.48;;;;;;;23.18;48.97;94159.31;4989935;28;20536;-74
2023/06/21 07:39:05;;;;;;;17.98;14.10;;;;;;;23.09;49.40;94159.69;4998183;28;20037;-76
2023/06/21 07:41:30;;;;;;;20.52;14.73;;;;;;;22.93;50.02;94163.88;4995653;28;20026;-75
2023/06/21 07:43:56;;;;;;;20.70;13.95;;;;;;;22.92;49.49;94162.38;4988724;28;20064;-75
2023/06/21 07:46:21;;;;;;;17.38;15.45;;;;;;;22.88;49.53;94169.72;4990993;28;20042;-74
2023/06/21 07:48:46;;;;;;;17.65;14.93;;;;;;;22.65;50.25;94159.91;4989919;28;20103;-74
2023/06/21 07:51:12;;;;;;;18.67;16.30;;;;;;;22.33;52.43;94166.34;4990133;28;20105;-74
2023/06/21 07:53:37;;;;;;;19.77;14.82;;;;;;;22.43;51.53;94160.19;4995883;28;20037;-75
2023/06/21 07:56:03;;;;;;;19.88;14.75;;;;;;;22.71;52.27;94176.59;4990629;28;20129;-74
2023/06/21 07:58:29;;;;;;;20.50;16.88;;;;;;;22.63;50.07;94166.88;4991487;28;20351;-75
2023/06/21 08:00:54;;;;;;;19.13;15.77;;;;;;;22.77;50.59;94158.78;4994508;28;20122;-74
2023/06/21 08:03:20;;;;;;;22.00;15.70;;;;;;;22.71;50.92;94163.03;4988892;28;20388;-75
2023/06/21 08:05:45;;;;;;;21.40;16.65;;;;;;;22.54;50.34;94156.34;4988298;28;20041;-74
2023/06/21 08:08:10;;;;;;;19.65;14.95;;;;;;;22.92;51.22;94176.69;4988321;28;20032;-75
2023/06/21 08:10:36;;;;;;;17.45;13.88;;;;;;;23.07;49.60;94174.81;4989794;28;20610;-74
2023/06/21 08:13:01;;;;;;;20.05;13.88;;;;;;;23.09;50.00;94169.75;4988857;28;20037;-75
2023/06/21 08:15:27;;;;;;;17.15;14.43;;;;;;;23.18;49.49;94156.59;4988617;28;20125;-74
2023/06/21 08:17:52;;;;;;;19.50;13.75;;;;;;;23.23;49.17;94160.88;4988631;28;20072;-75
2023/06/21 08:20:19;;;;;;;25.70;13.77;;;;;;;23.40;50.08;94160.13;4986471;28;20041;-75
2023/06/21 08:22:44;;;;;;;18.55;13.70;;;;;;;23.42;49.09;94149.66;4985061;28;20034;-75
2023/06/21 08:25:10;;;;;;;18.42;13.15;;;;;;;23.62;47.78;94163.66;4988747;28;20034;-76
2023/06/21 08:27:35;;;;;;;17.83;13.27;;;;;;;23.58;48.74;94160.94;4987131;28;20551;-75
2023/06/21 08:30:00;;;;;;;14.63;13.10;;;;;;;23.55;48.69;94164.44;4986637;28;20045;-75
2023/06/21 08:32:26;;;;;;;19.40;14.57;;;;;;;23.35;48.21;94165.94;4988440;28;20533;-74
2023/06/21 08:34:52;;;;;;;21.60;14.68;;;;;;;23.16;48.80;94175.22;4989879;28;20022;-74
2023/06/21 08:37:22;;;;;;;16.42;14.02;;;;;;;23.38;47.85;94173.31;4989224;28;20532;-75
2023/06/21 08:39:49;;;;;;;18.83;15.13;;;;;;;23.47;46.47;94166.34;4988869;28;20208;-75
2023/06/21 08:42:14;;;;;;;17.58;12.57;;;;;;;23.33;47.22;94136.47;4989907;28;20038;-73
2023/06/21 08:44:40;;;;;;;17.85;13.48;;;;;;;23.36;47.21;94151.22;4986732;28;20103;-75
2023/06/21 08:47:06;;;;;;;20.27;14.98;;;;;;;23.25;47.91;94166.69;4989543;28;21167;-74
2023/06/21 08:49:39;;;;;;;16.48;13.15;;;;;;;22.92;47.16;94163.13;4988090;28;20501;-74
2023/06/21 08:52:09;;;;;;;15.05;13.00;;;;;;;23.23;47.37;94152.72;4989026;28;20519;-75
2023/06/21 08:54:38;;;;;;;15.57;12.70;;;;;;;23.02;46.97;94156.19;4988488;28;20076;-74
2023/06/21 08:57:09;;;;;;;15.40;13.57;;;;;;;23.27;47.98;94154.28;4985146;28;20039;-74
2023/06/21 08:59:43;;;;;;;17.27;13.68;;;;;;;23.37;46.73;94137.25;4987249;28;21046;-75
2023/06/21 09:02:40;;;;;;;15.77;13.57;;;;;;;23.74;47.17;94155.91;4986337;28;20476;-75
2023/06/21 09:05:12;;;;;;;16.27;11.32;;;;;;;23.66;44.68;94154.34;4987003;28;20140;-74
2023/06/21 09:07:40;;;;;;;11.60;9.45;;;;;;;23.60;43.89;94153.22;4984675;28;20563;-75
2023/06/21 09:10:07;;;;;;;13.00;10.48;;;;;;;23.63;45.49;94144.28;4988866;28;20084;-75
2023/06/21 09:12:34;;;;;;;14.80;10.90;;;;;;;23.72;46.61;94155.53;4985628;28;20034;-74
2023/06/21 09:15:00;;;;;;;11.68;9.60;;;;;;;23.67;43.24;94150.47;4987013;28;20522;-75
2023/06/21 09:17:26;;;;;;;10.63;9.30;;;;;;;23.79;43.84;94141.19;4989905;28;20413;-75
2023/06/21 09:19:52;;;;;;;12.88;9.45;;;;;;;23.61;42.02;94145.84;4987680;28;20049;-74
2023/06/21 09:22:18;;;;;;;10.10;9.10;;;;;;;23.54;43.40;94146.59;4986621;28;20541;-76
2023/06/21 09:24:44;;;;;;;14.27;9.93;;;;;;;23.71;42.43;94145.81;4984665;28;20038;-75
2023/06/21 09:27:10;;;;;;;11.32;9.50;;;;;;;23.84;44.68;94144.28;4985074;28;20047;-73
2023/06/21 09:29:35;;;;;;;13.05;10.20;;;;;;;23.94;43.19;94151.66;4989238;28;20036;-75
2023/06/21 09:32:01;;;;;;;16.45;10.18;;;;;;;23.73;43.00;94148.94;4989576;28;20561;-75
2023/06/21 09:34:27;;;;;;;12.70;10.45;;;;;;;23.61;43.68;94119.47;4987205;28;20598;-74
2023/06/21 09:36:54;;;;;;;10.82;8.55;;;;;;;23.92;43.04;94145.81;4987820;28;20161;-74
2023/06/21 09:39:22;;;;;;;13.27;10.40;;;;;;;23.89;42.83;94132.25;4988338;28;20041;-76
2023/06/21 09:41:47;;;;;;;12.70;10.25;;;;;;;24.08;43.05;94139.19;4988627;28;20057;-73
2023/06/21 09:44:13;;;;;;;10.65;9.55;;;;;;;23.99;41.63;94139.59;4989912;28;20026;-75
2023/06/21 09:46:40;;;;;;;12.43;9.55;;;;;;;23.96;43.04;94152.00;4988657;28;20499;-75
2023/06/21 09:49:07;;;;;;;12.65;9.27;;;;;;;24.09;41.63;94148.91;4988706;28;20209;-75
2023/06/21 09:51:33;;;;;;;11.77;9.57;;;;;;;24.36;40.69;94126.34;4985418;28;20030;-75
2023/06/21 09:54:02;;;;;;;9.68;8.73;;;;;;;23.92;41.69;94148.53;4989477;28;20053;-74
2023/06/21 09:56:32;;;;;;;12.20;9.38;;;;;;;23.86;41.26;94136.50;4987548;28;21004;-74
2023/06/21 09:58:58;;;;;;;13.30;9.82;;;;;;;24.12;41.65;94134.56;4989398;28;20030;-75
2023/06/21 10:01:24;;;;;;;10.55;9.40;;;;;;;24.28;41.40;94135.69;4987879;28;20045;-75
2023/06/21 10:03:49;;;;;;;10.45;9.35;;;;;;;24.36;39.85;94126.34;4987464;28;20053;-75
2023/06/21 10:06:18;;;;;;;10.50;8.80;;;;;;;24.52;39.16;94139.50;4988185;28;20038;-73
2023/06/21 10:08:44;;;;;;;12.38;8.13;;;;;;;24.40;39.14;94132.53;4992219;28;20046;-73
2023/06/21 10:11:09;;;;;;;9.50;8.35;;;;;;;24.49;38.62;94145.75;4990452;28;20100;-74
2023/06/21 10:13:38;;;;;;;10.65;9.00;;;;;;;24.59;39.19;94138.72;4990070;28;20050;-74
2023/06/21 10:16:05;;;;;;;11.38;8.70;;;;;;;24.36;38.47;94141.88;4989809;28;20460;-74
2023/06/21 10:18:32;;;;;;;10.32;8.82;;;;;;;24.45;37.85;94136.81;4989967;28;20034;-75
2023/06/21 10:21:03;;;;;;;9.82;8.82;;;;;;;24.67;40.36;94138.28;4991431;28;20092;-74
2023/06/21 10:23:31;;;;;;;9.50;8.38;;;;;;;24.69;37.64;94135.94;4989296;28;20427;-74
2023/06/21 10:26:06;;;;;;;10.52;8.15;;;;;;;24.68;37.59;94131.69;4990486;28;20026;-74
2023/06/21 10:28:41;;;;;;;9.40;7.22;;;;;;;24.79;38.18;94143.31;4990377;28;20121;-74
2023/06/21 10:31:12;;;;;;;8.70;7.90;;;;;;;24.75;36.69;94131.66;4993551;28;20048;-74
2023/06/21 10:33:38;;;;;;;8.82;7.95;;;;;;;24.76;37.32;94127.78;4991451;28;20034;-74
2023/06/21 10:36:12;;;;;;;9.00;7.78;;;;;;;24.59;37.21;94134.03;4988202;28;20041;-74
2023/06/21 10:38:50;;;;;;;9.10;8.20;;;;;;;24.81;38.07;94132.81;4988136;28;20500;-74
2023/06/21 10:41:16;;;;;;;8.95;8.05;;;;;;;24.96;37.83;94135.47;4990637;28;20026;-74
2023/06/21 10:43:42;;;;;;;9.38;8.48;;;;;;;25.02;37.06;94129.22;4994172;28;20257;-74
2023/06/21 10:46:10;;;;;;;8.80;7.90;;;;;;;25.09;37.39;94140.03;4989520;28;20129;-75
2023/06/21 10:48:37;;;;;;;9.88;8.73;;;;;;;25.06;36.56;94137.34;4994746;28;20177;-75
2023/06/21 10:51:04;;;;;;;8.18;7.45;;;;;;;24.97;37.21;94137.78;4990450;28;20046;-74
2023/06/21 10:53:33;;;;;;;8.23;7.43;;;;;;;25.04;37.63;94134.25;4984874;28;20025;-73
2023/06/21 10:56:07;;;;;;;8.52;7.72;;;;;;;25.18;37.24;94145.03;4991877;28;20026;-74
2023/06/21 10:58:33;;;;;;;8.93;8.05;;;;;;;24.97;39.47;94137.78;4989024;28;20042;-74
2023/06/21 11:00:59;;;;;;;9.00;7.22;;;;;;;25.11;37.72;94142.38;4988966;28;20042;-73
2023/06/21 11:03:26;;;;;;;8.48;7.63;;;;;;;24.91;38.39;94112.16;4989055;28;20034;-74
2023/06/21 11:05:55;;;;;;;9.90;8.55;;;;;;;25.23;36.92;94144.63;4987423;28;20053;-73
2023/06/21 11:08:36;;;;;;;9.73;8.65;;;;;;;24.92;38.24;94134.72;4991071;28;20478;-74
2023/06/21 11:11:01;;;;;;;9.88;8.63;;;;;;;24.90;38.52;94121.50;4992141;28;20038;-74
2023/06/21 11:13:38;;;;;;;8.68;7.93;;;;;;;25.21;38.34;94131.44;4989292;28;20057;-74
2023/06/21 11:16:11;;;;;;;10.13;8.10;;;;;;;25.07;38.20;94136.97;4986425;28;20132;-74
2023/06/21 11:18:37;;;;;;;8.23;7.43;;;;;;;24.97;38.36;94126.91;4991299;28;20215;-74
2023/06/21 11:21:05;;;;;;;9.73;8.15;;;;;;;25.04;37.48;94126.06;4987194;28;20064;-75